Marshalls Creek, Pennsylvania
Current Conditions -  °F | °C
As of 6:53 AM on Thursday 18 Dec 2014 (Local Time) from KMPO Reporting Station
Overcast Overcast  
Wind Chill: -8°   Ceiling: 2400
Heat Index: -2°   Visibility: 10mi
Dew Point: -7°   Wind: 12mph
Humidity: 69%   Direction: 300°WNW
Pressure: 29.91"   Gusts: 21mph
Location:  41.04°N, 75.13°W
Report Text: KMPO 181153Z AUTO 30010G18KT 10SM OVC024 M02/M07 A2991 RMK AO2 PK WND 31035/1138 SLP148 60000 70001 T10221072 11011 21022 53011
Loading
Personal Weather Stations






























Interactive Weather Map New forecast layout! Learn more

10-Day Weather Forecast

Advertisements
Track Severe Weather on mobile